Time;durP1;ratioP1;P1;durP2;ratioP2;P2;SDS_P1;SDS_P2;PMS_P1;PMS_P2;Temp;Humidity;BMP_temperature;BMP_pressure;BME280_temperature;BME280_humidity;BME280_pressure;Samples;Min_cycle;Max_cycle;Signal;HPM_P1;HPM_P2
2023/06/30 00:01:51;;;;;;;9.20;6.57;;;22.50;99.90;;;;;;5011524;28;20175;-71
2023/06/30 00:04:17;;;;;;;6.37;5.80;;;22.60;99.90;;;;;;5002063;28;20194;-71
2023/06/30 00:06:49;;;;;;;10.53;7.00;;;22.50;99.90;;;;;;5001525;28;20207;-71
2023/06/30 00:09:21;;;;;;;7.50;5.90;;;22.60;99.90;;;;;;5010024;28;20459;-71
2023/06/30 00:11:50;;;;;;;7.87;6.57;;;22.50;99.90;;;;;;5005911;28;20481;-71
2023/06/30 00:14:15;;;;;;;6.83;5.70;;;22.50;99.90;;;;;;5002833;28;20964;-71
2023/06/30 00:16:41;;;;;;;6.60;6.00;;;22.50;99.90;;;;;;5004574;28;20486;-71
2023/06/30 00:19:08;;;;;;;8.27;7.57;;;22.50;99.90;;;;;;5005379;28;20210;-71
2023/06/30 00:21:33;;;;;;;7.00;6.30;;;22.50;99.90;;;;;;5011315;28;20179;-71
2023/06/30 00:24:01;;;;;;;6.63;5.90;;;22.50;99.90;;;;;;5009537;28;20497;-71
2023/06/30 00:26:28;;;;;;;6.53;5.80;;;22.50;99.90;;;;;;5008049;28;20206;-71
2023/06/30 00:28:54;;;;;;;5.77;5.23;;;22.50;99.90;;;;;;5004026;28;20423;-71
2023/06/30 00:31:20;;;;;;;17.03;15.40;;;22.40;99.90;;;;;;5001024;28;20854;-71
2023/06/30 00:33:45;;;;;;;5.80;5.30;;;22.30;99.90;;;;;;5002056;28;20649;-71
2023/06/30 00:36:11;;;;;;;6.80;6.20;;;22.10;99.90;;;;;;5005143;28;20294;-71
2023/06/30 00:38:37;;;;;;;6.80;6.20;;;22.00;99.90;;;;;;5004213;28;20270;-71
2023/06/30 00:41:02;;;;;;;6.80;6.27;;;22.00;99.90;;;;;;4998992;28;20211;-71
2023/06/30 00:43:28;;;;;;;6.77;6.07;;;22.10;99.90;;;;;;4999447;28;20258;-71
2023/06/30 00:45:54;;;;;;;6.67;5.80;;;22.10;99.90;;;;;;5002437;28;20600;-71
2023/06/30 00:48:20;;;;;;;5.90;5.50;;;22.00;99.90;;;;;;5002904;28;20210;-71
2023/06/30 00:50:45;;;;;;;6.17;5.67;;;22.00;99.90;;;;;;5009283;28;20826;-71
2023/06/30 00:53:12;;;;;;;6.97;6.37;;;21.90;99.90;;;;;;5006308;28;20244;-71
2023/06/30 00:55:40;;;;;;;14.70;13.60;;;21.90;99.90;;;;;;5003630;28;20249;-71
2023/06/30 00:58:05;;;;;;;10.03;9.13;;;21.80;99.90;;;;;;5008207;28;20456;-71
2023/06/30 01:00:31;;;;;;;10.70;6.00;;;21.80;99.90;;;;;;5004540;28;21497;-71
2023/06/30 01:03:19;;;;;;;7.33;6.63;;;21.80;99.90;;;;;;5010185;28;20167;-71
2023/06/30 01:05:52;;;;;;;6.87;5.90;;;21.80;99.90;;;;;;5006649;28;20206;-71
2023/06/30 01:08:26;;;;;;;6.90;6.07;;;21.80;99.90;;;;;;5009474;28;20461;-71
2023/06/30 01:10:53;;;;;;;8.23;6.40;;;21.70;99.90;;;;;;5009252;28;20425;-71
2023/06/30 01:13:19;;;;;;;7.57;6.70;;;21.70;99.90;;;;;;5007088;28;20553;-71
2023/06/30 01:15:46;;;;;;;6.60;5.97;;;21.70;99.90;;;;;;5007577;28;20477;-71
2023/06/30 01:18:13;;;;;;;9.53;7.03;;;21.60;99.90;;;;;;5006629;28;20449;-71
2023/06/30 01:20:40;;;;;;;6.10;5.70;;;21.50;99.90;;;;;;5003782;28;20465;-71
2023/06/30 01:23:35;;;;;;;7.97;7.17;;;21.50;99.90;;;;;;5002080;28;20469;-71
2023/06/30 01:26:02;;;;;;;6.97;6.33;;;21.30;99.90;;;;;;5003873;28;20487;-71
2023/06/30 01:28:29;;;;;;;7.60;6.90;;;21.20;99.90;;;;;;5002561;28;20438;-71
2023/06/30 01:30:56;;;;;;;7.50;6.80;;;21.10;99.90;;;;;;5003207;28;20993;-71
2023/06/30 01:33:22;;;;;;;7.63;6.93;;;21.10;99.90;;;;;;5003936;28;20500;-71
2023/06/30 01:35:47;;;;;;;7.37;6.67;;;21.20;99.90;;;;;;5002679;28;20457;-71
2023/06/30 01:38:13;;;;;;;6.83;6.33;;;21.10;99.90;;;;;;5002110;28;20723;-71
2023/06/30 01:40:39;;;;;;;12.83;6.87;;;21.00;99.90;;;;;;5002611;28;21639;-71
2023/06/30 01:43:05;;;;;;;7.10;6.60;;;21.10;99.90;;;;;;5003058;28;20183;-71
2023/06/30 01:45:31;;;;;;;9.47;8.20;;;21.10;99.90;;;;;;5002328;28;20199;-71
2023/06/30 01:47:58;;;;;;;7.63;7.03;;;21.10;99.90;;;;;;5000915;28;20451;-71
2023/06/30 01:50:24;;;;;;;8.40;7.63;;;21.00;99.90;;;;;;5003811;28;20434;-71
2023/06/30 01:52:50;;;;;;;7.10;6.57;;;21.00;99.90;;;;;;5006914;28;20480;-71
2023/06/30 01:55:16;;;;;;;7.77;6.90;;;21.10;99.90;;;;;;5002375;28;20469;-71
2023/06/30 01:57:42;;;;;;;7.40;6.63;;;21.00;99.90;;;;;;5007616;28;20191;-71
2023/06/30 02:00:08;;;;;;;6.47;5.87;;;20.90;99.90;;;;;;5004903;28;20429;-71
2023/06/30 02:02:33;;;;;;;6.93;6.33;;;20.90;99.90;;;;;;5008359;28;20194;-71
2023/06/30 02:04:59;;;;;;;7.80;7.10;;;20.90;99.90;;;;;;5008595;28;20441;-71
2023/06/30 02:07:25;;;;;;;8.20;6.90;;;20.80;99.90;;;;;;5007290;28;20573;-71
2023/06/30 02:09:50;;;;;;;7.33;6.83;;;20.70;99.90;;;;;;5000687;28;20206;-71
2023/06/30 02:12:16;;;;;;;7.67;7.07;;;20.70;99.90;;;;;;5011838;28;20573;-71
2023/06/30 02:14:41;;;;;;;7.83;7.17;;;20.70;99.90;;;;;;5011428;28;20198;-71
2023/06/30 02:17:10;;;;;;;8.50;7.70;;;20.70;99.90;;;;;;5009917;28;20207;-71
2023/06/30 02:19:35;;;;;;;8.17;7.50;;;20.70;99.90;;;;;;5006502;28;20215;-71
2023/06/30 02:22:01;;;;;;;7.53;7.03;;;20.70;99.90;;;;;;5005826;28;21247;-71
2023/06/30 02:24:26;;;;;;;7.27;6.77;;;20.70;99.90;;;;;;5009084;28;20644;-71
2023/06/30 02:26:52;;;;;;;8.43;7.63;;;20.70;99.90;;;;;;5012158;28;20672;-71
2023/06/30 02:29:20;;;;;;;8.73;7.80;;;20.50;99.90;;;;;;5010028;28;20187;-71
2023/06/30 02:31:46;;;;;;;8.57;7.47;;;20.40;99.90;;;;;;5000229;28;20175;-71
2023/06/30 02:34:11;;;;;;;8.30;7.60;;;20.20;99.90;;;;;;5012385;28;20990;-71
2023/06/30 02:36:37;;;;;;;9.20;8.50;;;20.20;99.90;;;;;;5013995;28;20253;-70
2023/06/30 02:39:02;;;;;;;9.47;8.70;;;20.10;99.90;;;;;;5012300;28;20648;-71
2023/06/30 02:41:28;;;;;;;8.60;8.00;;;20.10;99.90;;;;;;5004397;28;20188;-71
2023/06/30 02:43:53;;;;;;;9.53;8.03;;;20.20;99.90;;;;;;5004950;28;20183;-71
2023/06/30 02:46:19;;;;;;;8.73;8.07;;;20.20;99.90;;;;;;5000031;28;20286;-71
2023/06/30 02:48:44;;;;;;;7.50;6.90;;;20.20;99.90;;;;;;5010619;28;20529;-70
2023/06/30 02:51:10;;;;;;;7.83;7.13;;;20.20;99.90;;;;;;5008103;28;20179;-70
2023/06/30 02:53:35;;;;;;;8.17;7.40;;;20.30;99.90;;;;;;5008361;28;20282;-70
2023/06/30 02:56:01;;;;;;;8.27;7.67;;;20.20;99.90;;;;;;5008041;28;20207;-70
2023/06/30 02:58:26;;;;;;;9.53;8.70;;;20.10;99.90;;;;;;5006771;28;20242;-71
2023/06/30 03:00:55;;;;;;;7.90;7.40;;;20.00;99.90;;;;;;5006709;28;20183;-70
2023/06/30 03:03:20;;;;;;;8.17;7.47;;;20.10;99.90;;;;;;5008338;28;20179;-71
2023/06/30 03:05:46;;;;;;;8.90;8.10;;;20.20;99.90;;;;;;5010742;28;21192;-70
2023/06/30 03:08:11;;;;;;;9.37;8.57;;;20.30;99.90;;;;;;5010840;28;20183;-70
2023/06/30 03:10:37;;;;;;;8.40;7.80;;;20.40;99.90;;;;;;5003503;28;20213;-70
2023/06/30 03:13:03;;;;;;;8.07;7.47;;;20.40;99.90;;;;;;5007748;28;20191;-70
2023/06/30 03:15:28;;;;;;;8.40;7.60;;;20.30;99.90;;;;;;5010864;28;20241;-70
2023/06/30 03:17:55;;;;;;;8.53;7.57;;;20.20;99.90;;;;;;5011056;28;20481;-70
2023/06/30 03:20:21;;;;;;;8.00;7.40;;;20.10;99.90;;;;;;5009995;28;20273;-71
2023/06/30 03:22:46;;;;;;;8.70;8.10;;;20.10;99.90;;;;;;5005588;28;20552;-70
2023/06/30 03:25:12;;;;;;;8.33;7.63;;;20.00;99.90;;;;;;5004969;28;20603;-70
2023/06/30 03:27:37;;;;;;;8.13;7.53;;;20.00;99.90;;;;;;5005443;28;20211;-70
2023/06/30 03:30:04;;;;;;;9.40;8.50;;;20.00;99.90;;;;;;5003848;28;20189;-70
2023/06/30 03:32:30;;;;;;;9.93;9.13;;;20.10;99.90;;;;;;5006040;28;20197;-70
2023/06/30 03:34:56;;;;;;;8.90;8.10;;;20.20;99.90;;;;;;5004890;28;20780;-70
2023/06/30 03:37:21;;;;;;;15.07;8.57;;;20.20;99.90;;;;;;5004266;28;20520;-71
2023/06/30 03:39:47;;;;;;;9.20;8.30;;;20.20;99.90;;;;;;5004829;28;20187;-70
2023/06/30 03:42:12;;;;;;;9.60;8.80;;;20.20;99.90;;;;;;5003388;28;20237;-70
2023/06/30 03:44:38;;;;;;;9.47;8.30;;;20.10;99.90;;;;;;5006105;28;20553;-70
2023/06/30 03:47:04;;;;;;;11.10;9.00;;;20.20;99.90;;;;;;5006778;28;20214;-70
2023/06/30 03:49:29;;;;;;;9.07;8.27;;;20.10;99.90;;;;;;4989263;28;20171;-70
2023/06/30 03:51:55;;;;;;;10.07;9.33;;;20.10;99.90;;;;;;5004725;28;20174;-71
2023/06/30 03:54:20;;;;;;;9.00;8.30;;;20.00;99.90;;;;;;5002453;28;20178;-70
2023/06/30 03:56:47;;;;;;;10.50;8.57;;;20.10;99.90;;;;;;5008008;28;20534;-70
2023/06/30 03:59:12;;;;;;;9.30;8.20;;;20.10;99.90;;;;;;5007737;28;20178;-70
2023/06/30 04:01:39;;;;;;;8.50;8.00;;;20.20;99.90;;;;;;5008840;28;20438;-70
2023/06/30 04:04:05;;;;;;;7.67;7.07;;;20.20;99.90;;;;;;5007149;28;20752;-70
2023/06/30 04:06:33;;;;;;;8.70;7.70;;;20.20;99.90;;;;;;5007059;28;20473;-70
2023/06/30 04:09:02;;;;;;;9.00;8.30;;;20.30;99.90;;;;;;5007504;28;20513;-70
2023/06/30 04:11:27;;;;;;;8.70;7.90;;;20.30;99.90;;;;;;5004626;28;20920;-71
2023/06/30 04:13:53;;;;;;;10.53;9.33;;;20.30;99.90;;;;;;5001452;28;20441;-70
2023/06/30 04:16:18;;;;;;;9.23;8.33;;;20.40;99.90;;;;;;5007885;28;20222;-71
2023/06/30 04:18:44;;;;;;;11.60;8.33;;;20.50;99.90;;;;;;5004412;28;20179;-70
2023/06/30 04:21:09;;;;;;;9.00;8.10;;;20.50;99.90;;;;;;5002364;28;20182;-70
2023/06/30 04:23:36;;;;;;;9.30;8.40;;;20.40;99.90;;;;;;5001773;28;20217;-71
2023/06/30 04:26:02;;;;;;;8.43;7.73;;;20.50;99.90;;;;;;5002361;28;21080;-70
2023/06/30 04:28:27;;;;;;;9.47;8.57;;;20.60;99.90;;;;;;5007642;28;20516;-70
2023/06/30 04:30:53;;;;;;;9.10;8.20;;;20.60;99.90;;;;;;5008866;28;20191;-71
2023/06/30 04:33:18;;;;;;;8.40;7.60;;;20.70;99.90;;;;;;5008628;28;20185;-71
2023/06/30 04:35:44;;;;;;;8.90;8.20;;;20.80;99.90;;;;;;5003632;28;20197;-71
2023/06/30 04:38:10;;;;;;;7.80;7.10;;;20.80;99.90;;;;;;5006069;28;20191;-70
2023/06/30 04:40:35;;;;;;;8.60;7.80;;;20.80;99.90;;;;;;5008285;28;20653;-70
2023/06/30 04:43:02;;;;;;;8.80;8.00;;;20.90;99.90;;;;;;5007042;28;20178;-70
2023/06/30 04:45:27;;;;;;;8.27;7.57;;;21.00;99.90;;;;;;5005891;28;20729;-70
2023/06/30 04:47:53;;;;;;;8.30;7.70;;;21.00;99.90;;;;;;5006664;28;20552;-70
2023/06/30 04:50:18;;;;;;;9.80;9.00;;;21.00;99.90;;;;;;5008254;28;20191;-70
2023/06/30 04:52:44;;;;;;;8.57;7.87;;;21.00;99.90;;;;;;5006361;28;20270;-70
2023/06/30 04:55:10;;;;;;;9.70;7.40;;;21.00;99.90;;;;;;5004415;28;20183;-70
2023/06/30 04:57:35;;;;;;;9.00;7.50;;;21.10;99.90;;;;;;5005932;28;20182;-71
2023/06/30 05:00:01;;;;;;;8.90;8.10;;;21.10;99.90;;;;;;5010354;28;20716;-71
2023/06/30 05:02:27;;;;;;;9.13;8.33;;;21.10;99.90;;;;;;5010032;28;20174;-70
2023/06/30 05:04:52;;;;;;;9.87;8.90;;;20.80;99.90;;;;;;5009552;28;20430;-70
2023/06/30 05:07:18;;;;;;;10.30;9.40;;;20.50;99.90;;;;;;5001701;28;20215;-70
2023/06/30 05:09:44;;;;;;;10.67;9.57;;;20.20;99.90;;;;;;5008591;28;20174;-70
2023/06/30 05:12:09;;;;;;;12.93;11.50;;;20.00;99.90;;;;;;5000732;28;20182;-70
2023/06/30 05:14:35;;;;;;;14.67;12.47;;;19.90;99.90;;;;;;5008643;28;20710;-70
2023/06/30 05:17:00;;;;;;;14.73;13.37;;;19.60;99.90;;;;;;5005939;28;20742;-70
2023/06/30 05:19:26;;;;;;;14.20;12.80;;;19.30;99.90;;;;;;5006946;28;20199;-70
2023/06/30 05:21:52;;;;;;;14.27;12.97;;;19.10;99.90;;;;;;5008475;28;20190;-71
2023/06/30 05:24:18;;;;;;;16.90;15.30;;;18.90;99.90;;;;;;5011569;28;20205;-71
2023/06/30 05:26:43;;;;;;;16.73;15.10;;;18.80;99.90;;;;;;5010464;28;20477;-70
2023/06/30 05:29:10;;;;;;;19.47;17.53;;;18.60;99.90;;;;;;5011550;28;20178;-70
2023/06/30 05:31:36;;;;;;;20.10;15.43;;;18.70;99.90;;;;;;5003775;28;20182;-70
2023/06/30 05:34:01;;;;;;;19.53;18.07;;;18.70;99.90;;;;;;5010407;28;20920;-70
2023/06/30 05:36:29;;;;;;;20.03;18.30;;;18.70;99.90;;;;;;5013418;28;20264;-70
2023/06/30 05:38:54;;;;;;;17.40;15.30;;;18.80;99.90;;;;;;5014829;28;20178;-70
2023/06/30 05:41:20;;;;;;;19.77;16.77;;;18.80;99.90;;;;;;5012439;28;20464;-70
2023/06/30 05:43:45;;;;;;;17.17;15.40;;;18.70;99.90;;;;;;5012146;28;20220;-70
2023/06/30 05:46:11;;;;;;;19.87;17.93;;;18.70;99.90;;;;;;5014069;28;20221;-70
2023/06/30 05:48:36;;;;;;;17.57;16.10;;;18.70;99.90;;;;;;5007753;28;20187;-70
2023/06/30 05:51:01;;;;;;;18.30;16.57;;;18.70;99.90;;;;;;5010663;28;20182;-70
2023/06/30 05:53:27;;;;;;;17.57;15.73;;;18.60;99.90;;;;;;5010374;28;20183;-70
2023/06/30 05:55:52;;;;;;;15.53;13.93;;;18.50;99.90;;;;;;5007844;28;20202;-70
2023/06/30 05:58:18;;;;;;;17.70;16.30;;;18.50;99.90;;;;;;5010286;28;20229;-70
2023/06/30 06:00:43;;;;;;;18.53;16.93;;;18.50;99.90;;;;;;5012047;28;20171;-70
2023/06/30 06:03:09;;;;;;;21.80;19.70;;;18.40;99.90;;;;;;5013747;28;20183;-70
2023/06/30 06:05:34;;;;;;;19.20;17.43;;;18.60;99.90;;;;;;5003419;28;20207;-70
2023/06/30 06:08:00;;;;;;;18.60;16.90;;;18.50;99.90;;;;;;5009222;28;20234;-70
2023/06/30 06:10:25;;;;;;;18.43;16.90;;;18.60;99.90;;;;;;5011386;28;20875;-70
2023/06/30 06:12:54;;;;;;;18.63;16.93;;;18.50;99.90;;;;;;5009255;28;20221;-70
2023/06/30 06:15:19;;;;;;;20.73;18.83;;;18.40;99.90;;;;;;5004027;28;20213;-66
2023/06/30 06:17:45;;;;;;;21.77;19.80;;;18.40;99.90;;;;;;5010042;28;20437;-66
2023/06/30 06:20:10;;;;;;;18.30;16.67;;;18.40;99.90;;;;;;5007830;28;20194;-65
2023/06/30 06:22:36;;;;;;;20.27;18.37;;;18.60;99.90;;;;;;5004320;28;20271;-67
2023/06/30 06:25:01;;;;;;;20.20;17.93;;;18.60;99.90;;;;;;5007110;28;20578;-67
2023/06/30 06:27:28;;;;;;;20.53;18.63;;;18.70;99.90;;;;;;5011521;28;20195;-67
2023/06/30 06:29:54;;;;;;;20.87;18.90;;;18.80;99.90;;;;;;5001941;28;20307;-67
2023/06/30 06:32:19;;;;;;;18.47;16.97;;;18.70;99.90;;;;;;5009026;28;20517;-67
2023/06/30 06:34:45;;;;;;;20.40;18.80;;;18.80;99.90;;;;;;5005299;28;20180;-66
2023/06/30 06:37:11;;;;;;;21.67;19.43;;;18.80;99.90;;;;;;4997676;28;20233;-66
2023/06/30 06:39:36;;;;;;;21.53;19.40;;;18.90;99.90;;;;;;5005951;28;20429;-66
2023/06/30 06:42:02;;;;;;;20.73;18.80;;;18.90;99.90;;;;;;5001880;28;20195;-66
2023/06/30 06:44:28;;;;;;;21.07;19.37;;;19.00;99.90;;;;;;5008949;28;20221;-66
2023/06/30 06:47:32;;;;;;;22.63;18.93;;;18.80;99.90;;;;;;5005545;28;20692;-67
2023/06/30 06:49:59;;;;;;;18.90;17.33;;;18.70;99.90;;;;;;5004785;28;20687;-66
2023/06/30 06:52:24;;;;;;;20.87;19.07;;;18.70;99.90;;;;;;4999631;28;20414;-68
2023/06/30 06:54:50;;;;;;;20.60;18.40;;;18.70;99.90;;;;;;5001140;28;20433;-68
2023/06/30 06:57:15;;;;;;;19.57;17.67;;;18.80;99.90;;;;;;5010167;28;20198;-68
2023/06/30 06:59:41;;;;;;;20.83;18.97;;;18.80;99.90;;;;;;5010149;28;20179;-68
2023/06/30 07:02:06;;;;;;;21.57;19.37;;;19.00;99.90;;;;;;5010022;28;20187;-70
2023/06/30 07:04:32;;;;;;;19.17;17.10;;;19.20;99.90;;;;;;5007080;28;20198;-68
2023/06/30 07:06:57;;;;;;;20.67;18.30;;;19.30;99.90;;;;;;5009015;28;20217;-67
2023/06/30 07:09:23;;;;;;;19.70;17.87;;;19.40;99.90;;;;;;5007314;28;20237;-67
2023/06/30 07:11:48;;;;;;;20.83;18.37;;;19.50;99.90;;;;;;5001944;28;20182;-67
2023/06/30 07:14:14;;;;;;;20.60;17.53;;;19.60;99.90;;;;;;5008404;28;20186;-67
2023/06/30 07:16:39;;;;;;;19.37;17.57;;;19.70;99.90;;;;;;4998612;28;20258;-68
2023/06/30 07:19:05;;;;;;;18.07;16.37;;;19.90;99.90;;;;;;5007075;28;20262;-68
2023/06/30 07:21:31;;;;;;;25.50;19.80;;;20.00;99.90;;;;;;4995125;28;20266;-68
2023/06/30 07:23:57;;;;;;;18.30;16.53;;;20.10;99.90;;;;;;4995509;28;20623;-66
2023/06/30 07:26:22;;;;;;;18.20;16.33;;;20.10;99.90;;;;;;5000622;28;20552;-67
2023/06/30 07:28:48;;;;;;;16.33;14.87;;;20.00;99.90;;;;;;4987615;28;20183;-67
2023/06/30 07:31:13;;;;;;;16.77;15.17;;;20.00;99.90;;;;;;5007296;28;20187;-67
2023/06/30 07:33:39;;;;;;;17.70;16.30;;;19.90;99.90;;;;;;4999380;28;20179;-68
2023/06/30 07:36:05;;;;;;;19.07;17.47;;;19.90;99.90;;;;;;5003172;28;20202;-68
2023/06/30 07:38:31;;;;;;;15.17;13.77;;;19.90;99.90;;;;;;5008360;28;20441;-67
2023/06/30 07:40:56;;;;;;;18.17;16.27;;;19.90;99.90;;;;;;5008415;28;20213;-67
2023/06/30 07:43:22;;;;;;;18.03;16.27;;;19.80;99.90;;;;;;5006307;28;20221;-67
2023/06/30 07:45:47;;;;;;;19.50;17.30;;;19.80;99.90;;;;;;5006599;28;20636;-66
2023/06/30 07:48:13;;;;;;;18.70;15.70;;;19.90;99.90;;;;;;5001427;28;20174;-68
2023/06/30 07:50:39;;;;;;;18.87;16.97;;;19.80;99.90;;;;;;5004836;28;20255;-68
2023/06/30 07:53:08;;;;;;;19.60;16.80;;;19.50;99.90;;;;;;5001881;28;20182;-67
2023/06/30 07:55:33;;;;;;;19.00;17.00;;;19.30;99.90;;;;;;5005532;28;20222;-67
2023/06/30 07:57:59;;;;;;;20.40;18.37;;;19.10;99.90;;;;;;5009871;28;20473;-67
2023/06/30 08:00:28;;;;;;;18.60;16.80;;;19.00;99.90;;;;;;5007831;28;20266;-67
2023/06/30 08:02:54;;;;;;;20.13;18.10;;;19.00;99.90;;;;;;5008196;28;20221;-67
2023/06/30 08:05:20;;;;;;;18.80;16.50;;;19.00;99.90;;;;;;5008205;28;20473;-67
2023/06/30 08:07:46;;;;;;;20.87;18.00;;;19.00;99.90;;;;;;5002900;28;20502;-67
2023/06/30 08:10:12;;;;;;;19.67;17.53;;;19.10;99.90;;;;;;5010489;28;20214;-67
2023/06/30 08:12:38;;;;;;;19.13;17.00;;;19.10;99.90;;;;;;5010485;28;20495;-67
2023/06/30 08:15:04;;;;;;;19.80;17.57;;;19.20;99.90;;;;;;5005777;28;20186;-68
2023/06/30 08:17:29;;;;;;;20.30;18.00;;;19.20;99.90;;;;;;5008375;28;20205;-68
2023/06/30 08:19:55;;;;;;;23.10;19.07;;;19.20;99.90;;;;;;5001356;28;20459;-68
2023/06/30 08:22:21;;;;;;;19.47;17.47;;;19.10;99.90;;;;;;5006964;28;20183;-68
2023/06/30 08:24:47;;;;;;;21.10;18.90;;;19.10;99.90;;;;;;5005895;28;20175;-68
2023/06/30 08:27:13;;;;;;;21.23;18.60;;;19.10;99.90;;;;;;5009151;28;20535;-67
2023/06/30 08:29:39;;;;;;;21.47;18.70;;;19.00;99.90;;;;;;4999754;28;20450;-68
2023/06/30 08:32:05;;;;;;;21.27;19.17;;;18.90;99.90;;;;;;5005113;28;20438;-69
2023/06/30 08:34:31;;;;;;;21.47;18.73;;;19.00;99.90;;;;;;5008601;28;20175;-67
2023/06/30 08:36:57;;;;;;;21.80;19.43;;;18.90;99.90;;;;;;5004215;28;20472;-68
2023/06/30 08:39:23;;;;;;;21.17;18.87;;;19.00;99.90;;;;;;5007245;28;20194;-68
2023/06/30 08:41:52;;;;;;;21.30;18.93;;;19.00;99.90;;;;;;5009738;28;20209;-68
2023/06/30 08:44:23;;;;;;;22.37;19.93;;;18.80;99.90;;;;;;5002359;28;20450;-68
2023/06/30 08:46:53;;;;;;;21.43;19.10;;;18.70;99.90;;;;;;5002503;28;20462;-68
2023/06/30 08:49:24;;;;;;;21.20;18.90;;;18.70;99.90;;;;;;5001231;28;20844;-68
2023/06/30 08:51:56;;;;;;;23.50;21.07;;;18.70;99.90;;;;;;5003790;28;20437;-67
2023/06/30 08:54:23;;;;;;;30.53;20.30;;;18.70;99.90;;;;;;4999225;28;20444;-68
2023/06/30 08:56:49;;;;;;;22.73;20.00;;;18.70;99.90;;;;;;5002247;28;20960;-67
2023/06/30 08:59:14;;;;;;;24.53;21.77;;;18.70;99.90;;;;;;5004036;28;20448;-67
2023/06/30 09:01:41;;;;;;;22.80;19.93;;;18.70;99.90;;;;;;5004177;28;20183;-66
2023/06/30 09:04:07;;;;;;;23.13;20.20;;;18.60;99.90;;;;;;5001429;28;20679;-66
2023/06/30 09:06:37;;;;;;;24.47;21.87;;;18.60;99.90;;;;;;5002756;28;20481;-67
2023/06/30 09:09:07;;;;;;;21.73;19.17;;;18.70;99.90;;;;;;5002286;28;20500;-66
2023/06/30 09:11:34;;;;;;;23.70;21.20;;;18.70;99.90;;;;;;5007573;28;20430;-66
2023/06/30 09:14:01;;;;;;;23.20;20.63;;;18.70;99.90;;;;;;5010607;28;20523;-66
2023/06/30 09:16:29;;;;;;;23.97;21.37;;;18.70;99.90;;;;;;5008314;28;22276;-66
2023/06/30 09:18:55;;;;;;;24.30;21.80;;;18.60;99.90;;;;;;5007495;28;20833;-67
2023/06/30 09:21:20;;;;;;;24.80;21.00;;;18.70;99.90;;;;;;5010305;28;20445;-66
2023/06/30 09:23:46;;;;;;;23.73;19.77;;;18.70;99.90;;;;;;5008214;28;20554;-66
2023/06/30 09:26:13;;;;;;;22.20;19.90;;;18.80;99.90;;;;;;5011045;28;20309;-66
2023/06/30 09:28:42;;;;;;;27.80;22.10;;;18.90;99.90;;;;;;5009470;28;20178;-67
2023/06/30 09:31:08;;;;;;;23.83;21.30;;;18.90;99.90;;;;;;5008573;28;20425;-66
2023/06/30 09:33:35;;;;;;;22.20;19.87;;;19.00;99.90;;;;;;5011425;28;20473;-66
2023/06/30 09:36:02;;;;;;;22.43;19.17;;;19.10;99.90;;;;;;5008544;28;20488;-66
2023/06/30 09:38:29;;;;;;;20.23;18.13;;;19.20;99.90;;;;;;5009140;28;20858;-67
2023/06/30 09:40:55;;;;;;;18.87;17.07;;;19.20;99.90;;;;;;5007861;28;20437;-66
2023/06/30 09:43:23;;;;;;;18.50;16.33;;;19.20;99.90;;;;;;5009152;28;20426;-67
2023/06/30 09:46:02;;;;;;;19.87;17.87;;;19.20;99.90;;;;;;5010524;28;20488;-66
2023/06/30 09:48:35;;;;;;;18.80;16.90;;;19.30;99.90;;;;;;5007877;28;21020;-66
2023/06/30 09:51:01;;;;;;;21.43;18.80;;;19.40;99.90;;;;;;5008795;28;20445;-66
2023/06/30 09:53:34;;;;;;;18.73;16.73;;;19.40;99.90;;;;;;5008180;28;20445;-67
2023/06/30 09:56:00;;;;;;;18.93;16.93;;;19.50;99.90;;;;;;4989506;28;20210;-67
2023/06/30 09:58:25;;;;;;;18.97;15.70;;;19.70;99.90;;;;;;5007286;28;20441;-66
2023/06/30 10:00:51;;;;;;;18.03;15.00;;;19.80;99.90;;;;;;5010938;28;20563;-67
2023/06/30 10:03:18;;;;;;;16.87;15.30;;;19.80;99.90;;;;;;5012075;28;20202;-68
2023/06/30 10:05:45;;;;;;;17.27;15.63;;;19.80;99.90;;;;;;5008458;28;20203;-68
2023/06/30 10:08:12;;;;;;;16.90;15.20;;;19.90;99.90;;;;;;5014141;28;20437;-68
2023/06/30 10:10:41;;;;;;;19.20;17.30;;;19.80;99.90;;;;;;5015615;28;20421;-68
2023/06/30 10:13:07;;;;;;;18.20;16.40;;;19.90;99.90;;;;;;5014708;28;20509;-68
2023/06/30 10:15:33;;;;;;;17.40;15.80;;;20.00;99.90;;;;;;5013914;28;21013;-68
2023/06/30 10:17:59;;;;;;;16.73;14.97;;;20.10;99.90;;;;;;5015736;28;20473;-68
2023/06/30 10:20:25;;;;;;;15.10;13.70;;;20.20;99.90;;;;;;5009036;28;20449;-68
2023/06/30 10:22:52;;;;;;;17.27;15.43;;;20.10;99.90;;;;;;5008531;28;20436;-68
2023/06/30 10:25:20;;;;;;;16.47;14.77;;;20.20;99.90;;;;;;5010435;28;20449;-68
2023/06/30 10:27:47;;;;;;;15.10;13.70;;;20.30;99.90;;;;;;5005870;28;20469;-68
2023/06/30 10:30:13;;;;;;;16.10;14.60;;;20.30;99.90;;;;;;5010149;28;20545;-68
2023/06/30 10:32:39;;;;;;;16.37;14.77;;;20.30;99.90;;;;;;5007183;28;21012;-68
2023/06/30 10:35:09;;;;;;;18.67;16.33;;;20.50;99.90;;;;;;5007343;28;20270;-68
2023/06/30 10:37:35;;;;;;;15.00;13.50;;;20.50;99.90;;;;;;5009242;28;20218;-68
2023/06/30 10:40:06;;;;;;;15.53;14.03;;;20.70;99.90;;;;;;5008296;28;20461;-68
2023/06/30 10:42:36;;;;;;;17.70;15.70;;;20.60;99.90;;;;;;5009369;28;20182;-68
2023/06/30 10:45:02;;;;;;;17.30;15.60;;;20.60;99.90;;;;;;4994560;28;20429;-68
2023/06/30 10:47:28;;;;;;;18.33;16.40;;;20.60;99.90;;;;;;5004194;28;20463;-68
2023/06/30 10:49:54;;;;;;;15.83;14.33;;;20.50;99.90;;;;;;5006133;28;20214;-68
2023/06/30 10:52:27;;;;;;;18.37;16.67;;;20.50;99.90;;;;;;5012236;28;20183;-68
2023/06/30 10:54:53;;;;;;;19.23;17.43;;;20.60;99.90;;;;;;5003760;28;20434;-68
2023/06/30 10:57:24;;;;;;;21.67;19.47;;;20.80;99.90;;;;;;5006460;28;20829;-68
2023/06/30 11:00:11;;;;;;;21.53;19.40;;;20.70;99.90;;;;;;5006534;28;20449;-68
2023/06/30 11:02:49;;;;;;;21.40;19.10;;;20.80;99.90;;;;;;5007953;28;20438;-68
2023/06/30 11:05:26;;;;;;;21.20;19.20;;;20.90;99.90;;;;;;5003103;28;20445;-68
2023/06/30 11:08:01;;;;;;;22.10;19.90;;;21.00;99.90;;;;;;5004215;28;20465;-68
2023/06/30 11:10:34;;;;;;;20.33;18.20;;;21.30;99.90;;;;;;4998272;28;20430;-69
2023/06/30 11:13:02;;;;;;;22.30;20.17;;;21.60;99.90;;;;;;5005977;28;20528;-67
2023/06/30 11:15:38;;;;;;;33.27;23.40;;;22.00;99.90;;;;;;5004232;28;20959;-68
2023/06/30 11:18:09;;;;;;;22.00;19.77;;;22.10;99.90;;;;;;5004239;28;20468;-68
2023/06/30 11:20:34;;;;;;;24.40;22.10;;;22.30;99.90;;;;;;5005045;28;20442;-69
2023/06/30 11:23:15;;;;;;;24.03;21.57;;;22.40;99.90;;;;;;5004082;28;20446;-69
2023/06/30 11:25:40;;;;;;;28.57;21.73;;;22.20;99.90;;;;;;5007232;28;20195;-69
2023/06/30 11:28:08;;;;;;;27.60;24.60;;;22.40;99.90;;;;;;5007982;28;20492;-67
2023/06/30 11:30:36;;;;;;;26.10;23.60;;;22.70;99.90;;;;;;5008378;28;20203;-68
2023/06/30 11:33:04;;;;;;;27.63;24.97;;;22.90;99.90;;;;;;5008950;28;20858;-68
2023/06/30 11:35:32;;;;;;;25.97;23.30;;;23.10;99.90;;;;;;5004230;28;20458;-68
2023/06/30 11:37:58;;;;;;;24.90;22.30;;;23.10;99.90;;;;;;5003138;28;20441;-68
2023/06/30 11:40:23;;;;;;;25.30;22.80;;;23.30;99.90;;;;;;5009255;28;20943;-68
2023/06/30 11:42:51;;;;;;;27.13;24.23;;;23.70;99.90;;;;;;5010196;28;20183;-68
2023/06/30 11:45:20;;;;;;;25.00;22.50;;;23.80;99.90;;;;;;5001543;28;20218;-68
2023/06/30 11:47:48;;;;;;;23.53;21.00;;;24.00;99.90;;;;;;5003622;28;20489;-68
2023/06/30 11:50:14;;;;;;;26.03;23.37;;;24.00;99.90;;;;;;5010556;28;20421;-69
2023/06/30 11:52:40;;;;;;;26.40;23.80;;;24.10;99.90;;;;;;5006731;28;20442;-68
2023/06/30 11:55:13;;;;;;;25.90;23.43;;;24.30;99.90;;;;;;5003618;28;20422;-68
2023/06/30 11:57:40;;;;;;;26.80;24.27;;;24.30;99.90;;;;;;5002889;28;20184;-67
2023/06/30 12:00:13;;;;;;;28.73;25.70;;;23.80;99.90;;;;;;5004262;28;22408;-67
2023/06/30 12:02:50;;;;;;;27.67;24.97;;;23.50;99.90;;;;;;5006018;28;20450;-68
2023/06/30 12:05:17;;;;;;;28.73;26.03;;;23.40;99.90;;;;;;4999346;28;20442;-68
2023/06/30 12:07:44;;;;;;;29.00;25.93;;;23.20;99.90;;;;;;5003856;28;20461;-67
2023/06/30 12:10:11;;;;;;;28.27;25.20;;;23.30;99.90;;;;;;5010847;28;20962;-67
2023/06/30 12:12:37;;;;;;;26.07;23.57;;;23.30;99.90;;;;;;5011205;28;20492;-69
2023/06/30 12:15:09;;;;;;;25.60;23.07;;;23.20;99.90;;;;;;5010391;28;20430;-69
2023/06/30 12:17:39;;;;;;;27.90;25.10;;;23.20;99.90;;;;;;5008079;28;20453;-67
2023/06/30 12:20:06;;;;;;;26.37;23.87;;;23.00;99.90;;;;;;5003747;28;20433;-68
2023/06/30 12:22:36;;;;;;;26.10;23.07;;;23.00;99.90;;;;;;5007791;28;20441;-68
2023/06/30 12:25:02;;;;;;;26.00;23.37;;;23.10;99.90;;;;;;5008517;28;21075;-68
2023/06/30 12:27:28;;;;;;;27.50;24.80;;;22.90;99.90;;;;;;5009455;28;20515;-68
2023/06/30 12:29:54;;;;;;;26.80;24.10;;;23.20;99.90;;;;;;5007970;28;20434;-68
2023/06/30 12:32:22;;;;;;;26.83;24.07;;;23.60;99.90;;;;;;5010003;28;20182;-69
2023/06/30 12:34:48;;;;;;;26.50;23.80;;;23.80;99.90;;;;;;5005465;28;20442;-68